Time;durP1;ratioP1;P1;durP2;ratioP2;P2;SDS_P1;SDS_P2;PMS_P1;PMS_P2;Temp;Humidity;BMP_temperature;BMP_pressure;BME280_temperature;BME280_humidity;BME280_pressure;Samples;Min_cycle;Max_cycle;Signal;HPM_P1;HPM_P2
2023/07/24 00:03:27;;;;;;;6.20;3.90;;;;;;;18.65;100.00;97122.75;18432316;32;20120;-58
2023/07/24 00:13:30;;;;;;;9.07;4.57;;;;;;;18.60;100.00;97098.31;18398613;32;20057;-58
2023/07/24 00:23:34;;;;;;;7.10;4.68;;;;;;;18.50;100.00;97061.22;18431342;32;20057;-58
2023/07/24 00:33:38;;;;;;;7.82;4.43;;;;;;;18.34;100.00;97046.56;18430996;32;20084;-57
2023/07/24 00:43:41;;;;;;;;;;;;;;;18.24;100.00;97034.88;18419024;32;20128;-57
2023/07/24 00:53:44;;;;;;;6.53;4.18;;;;;;;18.09;100.00;97032.78;18443861;32;20016;-57
2023/07/24 01:03:47;;;;;;;8.20;4.53;;;;;;;18.01;100.00;97028.97;18415911;32;20042;-57
2023/07/24 01:14:04;;;;;;;6.37;4.03;;;;;;;18.00;100.00;97027.38;18442189;32;20046;-57
2023/07/24 01:24:24;;;;;;;8.20;4.60;;;;;;;18.04;100.00;97000.94;18441758;32;20067;-57
2023/07/24 01:34:28;;;;;;;6.12;4.05;;;;;;;18.05;100.00;96996.28;18441600;32;20102;-57
2023/07/24 01:44:30;;;;;;;5.77;4.40;;;;;;;18.02;100.00;96996.94;18438311;32;20045;-57
2023/07/24 01:54:33;;;;;;;6.70;3.70;;;;;;;17.98;100.00;96983.16;18435763;32;20100;-58
2023/07/24 02:04:36;;;;;;;4.72;3.83;;;;;;;17.91;100.00;96986.41;18429263;32;20132;-58
2023/07/24 02:14:38;;;;;;;5.90;4.03;;;;;;;17.79;100.00;96980.88;18435649;32;20327;-57
2023/07/24 02:24:41;;;;;;;7.72;4.40;;;;;;;17.63;100.00;96942.38;18434985;32;20057;-57
2023/07/24 02:34:44;;;;;;;9.47;4.60;;;;;;;17.50;100.00;96949.72;18434186;32;20065;-57
2023/07/24 02:44:47;;;;;;;9.30;4.70;;;;;;;17.40;100.00;96952.84;18421477;32;20033;-57
2023/07/24 02:54:50;;;;;;;7.93;4.65;;;;;;;17.33;100.00;96967.03;18436146;32;20061;-57
2023/07/24 03:04:52;;;;;;;7.68;4.78;;;;;;;17.27;100.00;96963.69;18435550;32;20497;-58
2023/07/24 03:14:55;;;;;;;8.13;5.05;;;;;;;17.23;100.00;96951.81;18435195;32;20067;-57
2023/07/24 03:24:57;;;;;;;8.43;5.35;;;;;;;17.28;100.00;96959.84;18434292;32;20103;-57
2023/07/24 03:35:00;;;;;;;7.43;4.70;;;;;;;17.34;100.00;96935.84;18433876;32;20054;-57
2023/07/24 03:45:03;;;;;;;10.07;5.40;;;;;;;17.38;100.00;96955.91;18419226;32;20106;-57
2023/07/24 03:55:07;;;;;;;8.27;5.60;;;;;;;17.47;100.00;96991.37;18432467;32;20053;-58
2023/07/24 04:05:10;;;;;;;8.13;5.25;;;;;;;17.57;100.00;97015.59;18432428;32;20057;-57
2023/07/24 04:15:13;;;;;;;8.47;5.67;;;;;;;17.69;100.00;97101.53;18431777;32;20079;-57
2023/07/24 04:25:16;;;;;;;9.38;5.45;;;;;;;17.81;100.00;97161.78;18404712;32;20045;-57
2023/07/24 04:35:19;;;;;;;7.62;4.87;;;;;;;17.87;100.00;97165.13;18430967;32;20061;-57
2023/07/24 04:45:22;;;;;;;9.67;4.20;;;;;;;17.87;100.00;97127.66;18416579;32;20361;-57
2023/07/24 04:55:25;;;;;;;9.18;3.65;;;;;;;17.83;100.00;97102.13;18416719;32;20049;-57
2023/07/24 05:05:28;;;;;;;6.00;3.10;;;;;;;17.75;100.00;96996.34;18430137;32;20445;-57
2023/07/24 05:15:31;;;;;;;6.33;3.07;;;;;;;17.74;100.00;97013.87;18429864;32;20370;-57
2023/07/24 05:25:34;;;;;;;3.87;2.67;;;;;;;17.67;100.00;97019.06;18429702;32;20122;-57
2023/07/24 05:35:37;;;;;;;4.80;2.67;;;;;;;17.78;100.00;97058.56;18438266;32;20061;-57
2023/07/24 05:45:41;;;;;;;4.28;3.00;;;;;;;17.84;100.00;97084.59;18432276;32;20045;-57
2023/07/24 05:55:44;;;;;;;4.30;2.87;;;;;;;17.96;100.00;97062.00;18426040;32;20424;-57
2023/07/24 06:05:52;;;;;;;4.12;2.55;;;;;;;18.26;100.00;97061.91;18439488;32;20072;-57
2023/07/24 06:15:55;;;;;;;5.70;2.85;;;;;;;18.50;100.00;97063.97;18439162;32;20441;-57
2023/07/24 06:25:57;;;;;;;6.22;3.37;;;;;;;18.40;100.00;97094.47;18438237;32;20076;-58
2023/07/24 06:36:00;;;;;;;4.87;2.73;;;;;;;18.37;100.00;97119.78;18437498;32;20053;-57
2023/07/24 06:46:05;;;;;;;4.47;2.47;;;;;;;18.77;100.00;97135.69;18435967;32;20121;-57
2023/07/24 06:56:09;;;;;;;3.80;2.65;;;;;;;19.22;100.00;97145.09;18436145;32;20069;-58
2023/07/24 07:06:12;;;;;;;3.28;2.42;;;;;;;19.73;100.00;97136.56;18409260;32;20069;-58
2023/07/24 07:16:18;;;;;;;3.55;2.62;;;;;;;20.09;100.00;97096.53;18435012;32;20053;-58
2023/07/24 07:26:25;;;;;;;5.80;3.40;;;;;;;20.29;100.00;97117.50;18413733;32;20543;-57
2023/07/24 07:36:28;;;;;;;4.53;3.05;;;;;;;20.49;100.00;97084.75;18419797;32;20041;-57
2023/07/24 07:46:32;;;;;;;4.82;3.12;;;;;;;20.76;100.00;97068.63;18419134;32;20053;-57
2023/07/24 07:56:36;;;;;;;4.90;3.35;;;;;;;21.23;100.00;97010.12;18432357;32;20103;-57
2023/07/24 08:06:38;;;;;;;5.87;3.12;;;;;;;21.37;100.00;97006.13;18418153;32;20041;-58
2023/07/24 08:16:41;;;;;;;4.95;3.53;;;;;;;21.89;100.00;96977.44;18427677;32;20433;-57
2023/07/24 08:26:44;;;;;;;5.45;4.10;;;;;;;22.62;100.00;96980.41;18429203;32;20116;-58
2023/07/24 08:36:48;;;;;;;6.25;3.62;;;;;;;23.06;100.00;96970.13;18430932;32;20365;-58
2023/07/24 08:46:52;;;;;;;5.37;3.78;;;;;;;23.51;100.00;96960.19;18430503;32;20045;-58
2023/07/24 08:56:56;;;;;;;5.40;3.30;;;;;;;23.40;100.00;96956.47;18416138;32;20076;-58
2023/07/24 09:06:59;;;;;;;4.70;3.20;;;;;;;22.91;100.00;96996.66;18421049;32;20079;-58
2023/07/24 09:17:07;;;;;;;3.60;1.95;;;;;;;22.44;100.00;97067.44;18442097;32;20058;-57
2023/07/24 09:27:12;;;;;;;2.25;1.60;;;;;;;21.38;100.00;97123.19;18427901;32;20459;-57
2023/07/24 09:37:31;;;;;;;2.12;1.40;;;;;;;20.61;100.00;97108.59;18441430;32;20083;-57
2023/07/24 09:47:35;;;;;;;3.47;1.50;;;;;;;20.18;100.00;97077.97;18425950;32;20063;-57
2023/07/24 09:58:00;;;;;;;3.05;1.37;;;;;;;19.69;100.00;97108.22;18440057;32;20120;-57
2023/07/24 10:08:04;;;;;;;9.30;1.60;;;;;;;19.02;100.00;97136.59;18425781;32;20083;-58
2023/07/24 10:18:10;;;;;;;1.98;1.00;;;;;;;18.60;100.00;97131.97;18438588;32;20112;-58
2023/07/24 10:28:16;;;;;;;2.03;1.20;;;;;;;18.95;100.00;97033.06;18424509;32;20053;-58
2023/07/24 10:38:32;;;;;;;2.42;1.50;;;;;;;19.48;100.00;97057.03;18437514;32;20164;-58
2023/07/24 10:48:44;;;;;;;4.97;1.98;;;;;;;19.71;100.00;97016.22;18422641;32;20101;-58
2023/07/24 10:58:47;;;;;;;2.92;2.12;;;;;;;20.08;100.00;97037.31;18436234;32;20094;-58
2023/07/24 11:08:59;;;;;;;2.57;1.97;;;;;;;19.78;100.00;97051.31;18435371;32;20354;-58
2023/07/24 11:19:06;;;;;;;3.90;2.15;;;;;;;19.86;100.00;97097.03;18435032;32;20484;-58
2023/07/24 11:29:13;;;;;;;4.35;2.75;;;;;;;19.67;100.00;97081.16;18419746;32;20069;-58
2023/07/24 11:39:24;;;;;;;3.45;2.40;;;;;;;19.69;100.00;97061.59;18434081;32;20342;-58
2023/07/24 11:49:30;;;;;;;3.22;2.03;;;;;;;19.75;100.00;97036.34;18432773;32;20127;-58
2023/07/24 11:59:39;;;;;;;3.85;2.42;;;;;;;20.11;100.00;97042.09;18426047;32;20079;-58
2023/07/24 12:09:52;;;;;;;5.40;2.30;;;;;;;20.48;100.00;97022.72;18432402;32;20327;-58
2023/07/24 12:19:55;;;;;;;3.97;2.72;;;;;;;20.51;100.00;97032.22;18432076;32;20433;-58
2023/07/24 12:29:59;;;;;;;;;;;;;;;20.19;100.00;97043.91;18431621;32;20045;-58
2023/07/24 12:40:03;;;;;;;4.17;2.20;;;;;;;20.02;100.00;97036.78;18435373;32;19953;-58
2023/07/24 12:50:07;;;;;;;3.80;2.17;;;;;;;21.20;100.00;97008.09;18377984;32;20049;-58
2023/07/24 13:00:11;;;;;;;3.83;2.70;;;;;;;21.60;100.00;96998.03;18374116;32;20045;-58
2023/07/24 13:10:14;;;;;;;4.22;2.40;;;;;;;21.19;100.00;97023.00;18379013;32;20069;-58
2023/07/24 13:20:18;;;;;;;3.60;2.80;;;;;;;20.56;100.00;96993.53;18364316;32;20053;-58
2023/07/24 13:30:21;;;;;;;4.55;2.60;;;;;;;20.40;100.00;97027.22;18376516;32;20501;-58
2023/07/24 13:40:25;;;;;;;4.30;2.33;;;;;;;20.06;100.00;97023.94;18377518;32;20099;-58
2023/07/24 13:50:28;;;;;;;5.82;3.30;;;;;;;19.80;100.00;97005.97;18431851;32;20065;-58
2023/07/24 14:00:32;;;;;;;9.55;2.78;;;;;;;19.52;100.00;97027.00;18439986;32;20323;-58
2023/07/24 14:10:35;;;;;;;;;;;;;;;19.38;100.00;96991.72;18440154;32;20064;-58
2023/07/24 14:20:40;;;;;;;5.50;2.97;;;;;;;19.57;100.00;96958.19;18439119;32;20264;-58
2023/07/24 14:30:43;;;;;;;6.68;3.30;;;;;;;20.40;100.00;96949.56;18438048;32;20053;-59
2023/07/24 14:40:46;;;;;;;4.82;3.22;;;;;;;20.74;100.00;96983.03;18417127;32;20083;-58
2023/07/24 14:50:50;;;;;;;4.93;2.90;;;;;;;21.08;100.00;96950.47;18436696;32;20061;-59
2023/07/24 15:00:56;;;;;;;4.55;3.05;;;;;;;21.09;100.00;96908.06;18436007;32;20045;-58
2023/07/24 15:11:00;;;;;;;3.40;2.37;;;;;;;22.68;100.00;96915.59;18435772;32;20057;-58
2023/07/24 15:21:04;;;;;;;2.35;1.80;;;;;;;22.68;100.00;96932.13;18435182;32;20040;-58
2023/07/24 15:31:10;;;;;;;3.42;1.73;;;;;;;22.84;100.00;96942.19;18434321;32;20080;-58
2023/07/24 15:41:14;;;;;;;3.17;1.92;;;;;;;23.17;100.00;96946.28;18433708;32;20428;-58
2023/07/24 15:51:17;;;;;;;2.53;1.70;;;;;;;23.29;100.00;96946.06;18368368;32;20064;-58
2023/07/24 16:01:21;;;;;;;3.97;1.60;;;;;;;23.23;100.00;96950.34;18368908;32;20068;-58
2023/07/24 16:11:28;;;;;;;2.20;1.62;;;;;;;23.18;100.00;96956.16;18368352;32;20134;-58
2023/07/24 16:21:32;;;;;;;3.47;1.70;;;;;;;23.09;100.00;96970.19;18366759;32;20046;-58
2023/07/24 16:31:36;;;;;;;7.18;4.50;;;;;;;22.99;100.00;96952.28;18359737;32;20060;-58
2023/07/24 16:41:39;;;;;;;2.92;2.15;;;;;;;22.67;100.00;96930.50;18367078;32;20057;-58
2023/07/24 16:51:42;;;;;;;3.55;1.87;;;;;;;22.39;100.00;96949.31;18365155;32;20159;-58
2023/07/24 17:01:46;;;;;;;2.42;2.00;;;;;;;22.20;100.00;96931.63;18365491;32;20057;-58
2023/07/24 17:11:50;;;;;;;2.53;1.98;;;;;;;22.07;100.00;96921.94;18366246;32;20064;-58
2023/07/24 17:21:55;;;;;;;2.67;2.15;;;;;;;21.79;100.00;96925.72;18366009;32;20049;-58
2023/07/24 17:32:00;;;;;;;2.85;2.10;;;;;;;21.60;100.00;96921.81;18374983;32;20076;-58
2023/07/24 17:42:03;;;;;;;3.12;2.30;;;;;;;21.63;100.00;96912.81;18379108;32;20871;-58
2023/07/24 17:52:08;;;;;;;5.35;2.37;;;;;;;21.83;100.00;96918.34;18440662;32;20068;-58
2023/07/24 18:02:11;;;;;;;2.53;2.00;;;;;;;21.85;100.00;96912.47;18439868;32;20108;-58
2023/07/24 18:12:14;;;;;;;4.45;2.25;;;;;;;21.69;100.00;96899.56;18439216;32;20466;-58
2023/07/24 18:22:19;;;;;;;2.85;2.10;;;;;;;21.49;100.00;96904.25;18417896;32;20109;-58
2023/07/24 18:32:24;;;;;;;3.47;2.05;;;;;;;21.10;100.00;96896.75;18424340;32;20449;-58
2023/07/24 18:42:27;;;;;;;3.97;2.22;;;;;;;20.73;100.00;96885.28;18437039;32;20046;-58
2023/07/24 18:52:31;;;;;;;3.03;2.00;;;;;;;20.38;100.00;96880.47;18436860;32;20110;-57
2023/07/24 19:02:33;;;;;;;3.40;2.08;;;;;;;19.97;100.00;96881.41;18436274;32;20076;-58
2023/07/24 19:12:38;;;;;;;2.77;2.10;;;;;;;19.60;100.00;96881.53;18422018;32;20064;-57
2023/07/24 19:22:42;;;;;;;2.97;1.98;;;;;;;19.31;100.00;96879.94;18434924;32;20049;-57
2023/07/24 19:32:45;;;;;;;2.90;1.70;;;;;;;19.05;100.00;96883.03;18434663;32;20084;-58
2023/07/24 19:42:48;;;;;;;2.60;2.00;;;;;;;18.83;100.00;96909.75;18433629;32;20100;-58
2023/07/24 19:52:50;;;;;;;4.43;1.90;;;;;;;18.62;100.00;96910.66;18418597;32;20090;-57
2023/07/24 20:02:55;;;;;;;4.50;1.80;;;;;;;18.39;100.00;96915.78;18418642;32;20108;-58
2023/07/24 20:12:58;;;;;;;4.95;2.05;;;;;;;18.20;100.00;96937.37;18425599;32;20056;-58
2023/07/24 20:23:01;;;;;;;3.33;2.23;;;;;;;18.07;100.00;96925.62;18431763;32;20490;-58
2023/07/24 20:33:05;;;;;;;;;;;;;;;17.87;100.00;96928.03;18431559;32;20057;-57
2023/07/24 20:43:08;;;;;;;3.72;1.73;;;;;;;17.72;100.00;96928.63;18431191;32;20312;-57
2023/07/24 20:53:11;;;;;;;3.43;1.83;;;;;;;17.60;100.00;96934.84;18430733;32;20052;-58
2023/07/24 21:03:14;;;;;;;4.27;2.40;;;;;;;17.49;100.00;96930.94;18436262;32;20068;-57
2023/07/24 21:13:17;;;;;;;3.65;2.20;;;;;;;17.39;100.00;96923.91;18428936;32;20064;-57
2023/07/24 21:23:20;;;;;;;2.50;1.85;;;;;;;17.27;100.00;96921.94;18442383;32;20054;-58
2023/07/24 21:33:23;;;;;;;6.47;2.20;;;;;;;17.14;100.00;96945.59;18441907;32;20102;-57
2023/07/24 21:43:26;;;;;;;2.28;1.80;;;;;;;17.13;100.00;96929.56;18440950;32;20045;-57
2023/07/24 21:53:29;;;;;;;4.25;2.00;;;;;;;17.11;100.00;96938.09;18426639;32;20103;-57
2023/07/24 22:03:32;;;;;;;6.07;2.63;;;;;;;17.06;100.00;96947.28;18419603;32;20057;-57
2023/07/24 22:13:35;;;;;;;2.60;1.80;;;;;;;17.03;100.00;96953.38;18438846;32;20076;-58
2023/07/24 22:23:37;;;;;;;3.92;1.98;;;;;;;17.03;100.00;96936.19;18438983;32;20103;-57
2023/07/24 22:33:39;;;;;;;4.18;1.98;;;;;;;17.02;100.00;96931.88;18438185;32;20090;-57
2023/07/24 22:43:42;;;;;;;5.90;1.80;;;;;;;17.03;100.00;96919.81;18423473;32;20057;-57
2023/07/24 22:53:44;;;;;;;4.22;1.40;;;;;;;17.05;100.00;96910.16;18423022;32;20060;-57
2023/07/24 23:03:48;;;;;;;2.55;1.90;;;;;;;17.05;100.00;96893.00;18422021;32;20113;-57
2023/07/24 23:13:50;;;;;;;4.15;1.90;;;;;;;16.99;100.00;96867.78;18435623;32;20049;-57
2023/07/24 23:23:53;;;;;;;4.57;1.85;;;;;;;17.03;100.00;96860.53;18434413;32;20065;-57
2023/07/24 23:33:55;;;;;;;3.03;2.08;;;;;;;17.04;100.00;96869.53;18434441;32;20040;-58
2023/07/24 23:43:58;;;;;;;3.97;2.15;;;;;;;17.08;100.00;96862.28;18419564;32;20106;-58
2023/07/24 23:54:00;;;;;;;2.33;1.80;;;;;;;17.08;100.00;96874.00;18426667;32;20094;-58
